Time;durP1;ratioP1;P1;durP2;ratioP2;P2;SDS_P1;SDS_P2;PMS_P1;PMS_P2;Temp;Humidity;BMP_temperature;BMP_pressure;BME280_temperature;BME280_humidity;BME280_pressure;Samples;Min_cycle;Max_cycle;Signal;HPM_P1;HPM_P2
2022/02/27 00:02:22;;;;;;;11.50;4.93;;;;;;;-0.29;100.00;103294.97;5030478;28;20272;-72
2022/02/27 00:04:48;;;;;;;7.38;3.97;;;;;;;-0.32;100.00;103298.53;5029245;28;20371;-72
2022/02/27 00:07:13;;;;;;;9.60;4.45;;;;;;;-0.48;100.00;103292.69;5029060;28;20040;-71
2022/02/27 00:09:38;;;;;;;11.60;4.97;;;;;;;-0.61;100.00;103285.06;5012687;28;20102;-72
2022/02/27 00:12:04;;;;;;;14.63;4.30;;;;;;;-0.59;100.00;103293.78;5029294;28;20295;-72
2022/02/27 00:14:29;;;;;;;11.80;3.88;;;;;;;-0.67;100.00;103286.06;5029048;28;20330;-72
2022/02/27 00:16:55;;;;;;;11.43;4.40;;;;;;;-0.70;100.00;103291.38;5029259;28;20035;-72
2022/02/27 00:19:23;;;;;;;10.70;4.07;;;;;;;-0.77;100.00;103285.38;5028856;28;20075;-72
2022/02/27 00:21:49;;;;;;;7.15;3.28;;;;;;;-0.87;100.00;103284.66;5030055;28;20280;-73
2022/02/27 00:24:15;;;;;;;6.93;3.88;;;;;;;-0.94;100.00;103276.91;5031591;28;20036;-75
2022/02/27 00:26:41;;;;;;;7.80;3.22;;;;;;;-0.95;100.00;103283.91;5034269;28;20068;-72
2022/02/27 00:29:07;;;;;;;10.95;3.83;;;;;;;-0.93;100.00;103278.66;5032326;28;20025;-72
2022/02/27 00:31:34;;;;;;;16.48;5.43;;;;;;;-0.74;100.00;103284.44;5032889;28;20034;-73
2022/02/27 00:34:00;;;;;;;13.48;4.03;;;;;;;-0.77;100.00;103279.22;5033679;28;20083;-72
2022/02/27 00:36:26;;;;;;;14.43;4.43;;;;;;;-0.83;100.00;103279.34;5032762;28;20025;-73
2022/02/27 00:38:51;;;;;;;10.45;3.85;;;;;;;-0.94;100.00;103272.50;5015831;28;20298;-72
2022/02/27 00:41:17;;;;;;;7.20;3.97;;;;;;;-1.00;100.00;103272.63;5032534;28;20397;-72
2022/02/27 00:43:42;;;;;;;9.95;4.95;;;;;;;-0.94;100.00;103276.91;5015948;28;20021;-72
2022/02/27 00:46:09;;;;;;;13.68;4.40;;;;;;;-1.07;100.00;103264.00;5032378;28;20107;-73
2022/02/27 00:48:37;;;;;;;8.95;4.20;;;;;;;-1.10;100.00;103277.19;5032115;28;20026;-73
2022/02/27 00:51:03;;;;;;;9.30;4.80;;;;;;;-1.17;100.00;103275.53;5015845;28;20029;-72
2022/02/27 00:53:30;;;;;;;11.20;3.83;;;;;;;-1.15;100.00;103275.50;5032361;28;20051;-72
2022/02/27 00:55:55;;;;;;;7.82;4.60;;;;;;;-1.16;100.00;103272.03;5015542;28;20482;-73
2022/02/27 00:58:21;;;;;;;10.57;4.63;;;;;;;-1.06;100.00;103283.22;5015901;28;20030;-73
2022/02/27 01:00:46;;;;;;;12.57;5.00;;;;;;;-1.02;100.00;103277.03;5033130;28;20766;-73
2022/02/27 01:03:11;;;;;;;7.10;3.22;;;;;;;-1.11;100.00;103272.81;5015707;28;20116;-73
2022/02/27 01:05:37;;;;;;;7.35;4.15;;;;;;;-1.21;100.00;103271.22;5015461;28;20471;-72
2022/02/27 01:08:02;;;;;;;13.77;4.90;;;;;;;-1.30;100.00;103277.47;5032202;28;20036;-72
2022/02/27 01:10:29;;;;;;;7.75;4.30;;;;;;;-1.39;100.00;103267.13;5015304;28;20057;-72
2022/02/27 01:12:54;;;;;;;10.77;5.47;;;;;;;-1.47;100.00;103261.16;5031984;28;20398;-72
2022/02/27 01:15:20;;;;;;;9.90;5.53;;;;;;;-1.52;100.00;103273.47;5031661;28;20038;-72
2022/02/27 01:17:46;;;;;;;13.43;4.82;;;;;;;-1.56;100.00;103272.63;5033188;28;20060;-72
2022/02/27 01:20:14;;;;;;;13.20;4.88;;;;;;;-1.68;100.00;103261.47;5015152;28;20029;-72
2022/02/27 01:22:39;;;;;;;8.98;6.28;;;;;;;-1.74;100.00;103268.50;5032664;28;20017;-72
2022/02/27 01:25:07;;;;;;;10.15;5.15;;;;;;;-1.76;100.00;103267.66;5014963;28;20042;-72
2022/02/27 01:27:32;;;;;;;10.32;4.22;;;;;;;-1.84;100.00;103266.06;5015385;28;20033;-72
2022/02/27 01:29:58;;;;;;;10.27;4.50;;;;;;;-1.89;100.00;103276.59;5031375;28;20042;-72
2022/02/27 01:32:24;;;;;;;9.90;4.28;;;;;;;-1.91;100.00;103280.97;5032903;28;20422;-73
2022/02/27 01:34:49;;;;;;;8.32;5.20;;;;;;;-1.92;100.00;103277.50;5014491;28;20037;-73
2022/02/27 01:37:17;;;;;;;8.45;4.30;;;;;;;-1.84;100.00;103269.53;5015156;28;20057;-72
2022/02/27 01:39:42;;;;;;;8.90;4.00;;;;;;;-1.74;100.00;103284.22;5031266;28;20029;-72
2022/02/27 01:42:13;;;;;;;6.85;4.25;;;;;;;-1.78;100.00;103282.56;5014600;28;20220;-72
2022/02/27 01:44:42;;;;;;;11.48;4.63;;;;;;;-1.80;100.00;103280.84;5014533;28;20410;-73
2022/02/27 01:47:11;;;;;;;7.75;4.43;;;;;;;-1.86;100.00;103279.16;5014547;28;20501;-73
2022/02/27 01:49:38;;;;;;;7.43;3.92;;;;;;;-1.88;100.00;103282.69;5030849;28;20072;-73
2022/02/27 01:52:04;;;;;;;10.73;5.05;;;;;;;-1.79;100.00;103286.06;5032579;28;20029;-73
2022/02/27 01:54:30;;;;;;;10.40;5.22;;;;;;;-1.79;100.00;103293.03;5030661;28;20136;-73
2022/02/27 01:56:56;;;;;;;14.07;4.05;;;;;;;-1.88;100.00;103290.53;5014378;28;20180;-72
2022/02/27 01:59:22;;;;;;;;;;;;;;;-1.85;100.00;103291.38;5031068;28;20045;-73
2022/02/27 02:01:48;;;;;;;9.13;4.47;;;;;;;-1.91;100.00;103292.31;5014405;28;19908;-73
2022/02/27 02:04:14;;;;;;;10.30;3.97;;;;;;;-2.02;100.00;103283.72;5030678;28;20091;-73
2022/02/27 02:06:40;;;;;;;11.13;5.25;;;;;;;-2.08;100.00;103281.19;5014309;28;20505;-73
2022/02/27 02:09:06;;;;;;;13.65;5.72;;;;;;;-2.12;100.00;103284.72;5014159;28;20030;-73
2022/02/27 02:11:36;;;;;;;11.80;5.50;;;;;;;-2.06;100.00;103281.16;5030215;28;20033;-73
2022/02/27 02:14:03;;;;;;;6.93;4.15;;;;;;;-2.03;100.00;103291.63;5030276;28;20040;-73
2022/02/27 02:16:46;;;;;;;10.10;5.40;;;;;;;-1.74;100.00;103302.56;5030791;28;20393;-72
2022/02/27 02:19:14;;;;;;;11.35;4.22;;;;;;;-1.79;100.00;103304.38;5030189;28;20402;-72
2022/02/27 02:21:42;;;;;;;12.95;5.13;;;;;;;-1.85;100.00;103309.72;5030726;28;20017;-72
2022/02/27 02:24:08;;;;;;;16.60;5.38;;;;;;;-1.96;100.00;103308.97;5030182;28;20037;-72
2022/02/27 02:26:35;;;;;;;10.77;5.60;;;;;;;-2.02;100.00;103303.81;5030301;28;20025;-73
2022/02/27 02:29:02;;;;;;;20.10;5.00;;;;;;;-2.19;100.00;103297.03;5029847;28;20431;-73
2022/02/27 02:31:28;;;;;;;9.48;4.60;;;;;;;-2.25;100.00;103297.09;5030312;28;20216;-74
2022/02/27 02:33:53;;;;;;;9.90;5.20;;;;;;;-2.31;100.00;103286.69;5011907;28;20025;-73
2022/02/27 02:36:18;;;;;;;8.53;4.80;;;;;;;-2.38;100.00;103282.41;5016716;28;20094;-73
2022/02/27 02:38:44;;;;;;;9.88;5.78;;;;;;;-2.43;100.00;103287.69;5033062;28;20374;-73
2022/02/27 02:41:09;;;;;;;12.07;4.60;;;;;;;-2.44;100.00;103283.34;5033582;28;20079;-72
2022/02/27 02:43:35;;;;;;;13.82;5.43;;;;;;;-2.53;100.00;103280.81;5032930;28;20375;-73
2022/02/27 02:46:00;;;;;;;12.20;5.03;;;;;;;-2.53;100.00;103287.81;5050121;28;20056;-73
2022/02/27 02:48:26;;;;;;;11.20;5.10;;;;;;;-2.53;100.00;103282.56;5049958;28;20116;-73
2022/02/27 02:51:07;;;;;;;12.05;4.85;;;;;;;-2.60;100.00;103289.59;5049733;28;20029;-73
2022/02/27 02:53:37;;;;;;;9.27;4.93;;;;;;;-2.61;100.00;103291.38;5033238;28;20090;-72
2022/02/27 02:56:06;;;;;;;9.98;4.70;;;;;;;-2.61;100.00;103287.88;5032461;28;20398;-73
2022/02/27 02:58:35;;;;;;;7.10;3.83;;;;;;;-2.66;100.00;103289.69;5050970;28;20029;-72
2022/02/27 03:01:02;;;;;;;16.42;5.63;;;;;;;-2.67;100.00;103290.56;5050881;28;20037;-72
2022/02/27 03:03:29;;;;;;;11.27;5.05;;;;;;;-2.64;100.00;103294.03;5032731;28;20032;-73
2022/02/27 03:05:54;;;;;;;12.65;5.10;;;;;;;-2.66;100.00;103292.31;5050665;28;20068;-72
2022/02/27 03:08:20;;;;;;;11.65;5.10;;;;;;;-2.55;100.00;103304.41;5050726;28;20068;-72
2022/02/27 03:10:45;;;;;;;15.77;5.50;;;;;;;-2.52;100.00;103306.13;5032374;28;20071;-72
2022/02/27 03:13:11;;;;;;;13.57;5.30;;;;;;;-2.60;100.00;103308.81;5032966;28;20040;-72
2022/02/27 03:15:37;;;;;;;14.55;5.57;;;;;;;-2.74;100.00;103301.97;5048925;28;20040;-72
2022/02/27 03:18:02;;;;;;;9.35;4.82;;;;;;;-2.76;100.00;103304.59;5049720;28;20037;-72
2022/02/27 03:20:27;;;;;;;13.55;4.70;;;;;;;-2.77;100.00;103308.94;5032493;28;20033;-72
2022/02/27 03:22:53;;;;;;;12.63;4.57;;;;;;;-2.78;100.00;103311.59;5050657;28;20470;-72
2022/02/27 03:25:18;;;;;;;13.07;4.85;;;;;;;-2.79;100.00;103305.50;5050053;28;20052;-72
2022/02/27 03:27:43;;;;;;;11.63;4.65;;;;;;;-2.88;100.00;103312.53;5050406;28;20044;-72
2022/02/27 03:30:09;;;;;;;11.60;4.75;;;;;;;-2.79;100.00;103315.06;5032534;28;20116;-72
2022/02/27 03:32:34;;;;;;;11.63;5.60;;;;;;;-2.47;100.00;103327.00;5032313;28;20039;-72
2022/02/27 03:35:00;;;;;;;12.00;4.93;;;;;;;-2.41;100.00;103322.56;5050197;28;20041;-72
2022/02/27 03:37:26;;;;;;;13.40;5.13;;;;;;;-2.35;100.00;103316.41;5032615;28;20075;-72
2022/02/27 03:39:51;;;;;;;14.32;5.53;;;;;;;-2.19;100.00;103332.81;5032430;28;20143;-72
2022/02/27 03:42:17;;;;;;;8.43;4.63;;;;;;;-1.85;100.00;103327.16;5031686;28;20090;-72
2022/02/27 03:44:43;;;;;;;10.50;4.88;;;;;;;-1.89;100.00;103335.97;5050462;28;20052;-72
2022/02/27 03:47:08;;;;;;;11.30;4.40;;;;;;;-1.96;100.00;103327.31;5032730;28;20021;-72
2022/02/27 03:49:34;;;;;;;10.52;4.72;;;;;;;-1.95;100.00;103329.88;5050150;28;20498;-72
2022/02/27 03:51:59;;;;;;;11.45;3.92;;;;;;;-1.95;100.00;103322.03;5050299;28;20025;-72
2022/02/27 03:54:27;;;;;;;12.35;4.55;;;;;;;-1.92;100.00;103326.38;5032326;28;20539;-72
2022/02/27 03:56:53;;;;;;;11.52;4.70;;;;;;;-1.96;100.00;103322.06;5033067;28;20083;-72
2022/02/27 03:59:18;;;;;;;8.77;4.07;;;;;;;-1.91;100.00;103322.88;5036245;28;20036;-72
2022/02/27 04:01:44;;;;;;;11.30;3.95;;;;;;;-1.94;100.00;103326.41;5036671;28;20028;-73
2022/02/27 04:04:09;;;;;;;12.73;4.95;;;;;;;-1.90;100.00;103314.13;5052783;28;20036;-72
2022/02/27 04:06:34;;;;;;;10.45;4.47;;;;;;;-1.87;100.00;103314.09;5054387;28;20027;-72
2022/02/27 04:09:00;;;;;;;11.05;4.18;;;;;;;-1.95;100.00;103311.56;5036055;28;20543;-72
2022/02/27 04:11:25;;;;;;;11.52;4.53;;;;;;;-1.92;100.00;103305.41;5036470;28;20384;-72
2022/02/27 04:13:51;;;;;;;12.25;5.40;;;;;;;-1.93;100.00;103312.41;5052610;28;20029;-72
2022/02/27 04:16:16;;;;;;;8.10;4.43;;;;;;;-1.83;100.00;103309.69;5036457;28;20040;-73
2022/02/27 04:18:41;;;;;;;12.52;4.57;;;;;;;-1.74;100.00;103326.13;5036038;28;20064;-72
2022/02/27 04:21:08;;;;;;;10.33;5.37;;;;;;;-1.82;100.00;103312.28;5054208;28;20079;-72
2022/02/27 04:23:33;;;;;;;7.45;4.00;;;;;;;-1.81;100.00;103307.91;5053745;28;20378;-72
2022/02/27 04:25:59;;;;;;;10.20;4.97;;;;;;;-1.81;100.00;103307.91;5053761;28;20454;-72
2022/02/27 04:28:24;;;;;;;11.43;4.60;;;;;;;-1.68;100.00;103313.88;5019871;28;20335;-73
2022/02/27 04:30:49;;;;;;;13.57;5.40;;;;;;;-1.79;100.00;103309.63;5053118;28;20054;-72
2022/02/27 04:33:15;;;;;;;9.82;4.10;;;;;;;-1.81;100.00;103316.63;5035983;28;20120;-72
2022/02/27 04:35:40;;;;;;;10.07;4.60;;;;;;;-1.81;100.00;103324.47;5035810;28;20037;-72
2022/02/27 04:38:06;;;;;;;11.38;5.07;;;;;;;-1.89;100.00;103321.13;5052612;28;20060;-72
2022/02/27 04:40:34;;;;;;;8.13;4.35;;;;;;;-1.88;100.00;103319.34;5035723;28;20047;-72
2022/02/27 04:43:03;;;;;;;11.18;5.07;;;;;;;-1.79;100.00;103314.84;5053872;28;20044;-72
2022/02/27 04:45:29;;;;;;;10.30;4.88;;;;;;;-1.79;100.00;103317.47;5053306;28;20426;-71
2022/02/27 04:47:55;;;;;;;15.55;5.22;;;;;;;-1.84;100.00;103308.81;5052546;28;20125;-73
2022/02/27 04:50:21;;;;;;;14.93;6.90;;;;;;;-1.85;100.00;103307.09;5035316;28;20029;-73
2022/02/27 04:52:46;;;;;;;11.70;5.30;;;;;;;-1.88;100.00;103303.63;5053614;28;20033;-72
2022/02/27 04:55:12;;;;;;;12.88;4.93;;;;;;;-1.92;100.00;103300.19;5053062;28;20044;-72
2022/02/27 04:57:37;;;;;;;6.85;3.63;;;;;;;-1.97;100.00;103299.38;5053351;28;20037;-72
2022/02/27 05:00:07;;;;;;;11.27;4.40;;;;;;;-2.03;100.00;103300.34;5035074;28;20033;-72
2022/02/27 05:02:36;;;;;;;11.35;4.32;;;;;;;-1.86;100.00;103300.13;5035622;28;20036;-73
2022/02/27 05:05:01;;;;;;;14.02;4.72;;;;;;;-1.85;100.00;103301.88;5053061;28;20033;-72
2022/02/27 05:07:27;;;;;;;12.30;5.18;;;;;;;-1.83;100.00;103291.34;5019138;28;20055;-72
2022/02/27 05:09:52;;;;;;;6.47;3.88;;;;;;;-1.79;100.00;103301.75;5052123;28;20414;-72
2022/02/27 05:12:18;;;;;;;11.02;4.40;;;;;;;-1.87;100.00;103303.63;5051564;28;20041;-72
2022/02/27 05:14:43;;;;;;;13.57;4.53;;;;;;;-1.80;100.00;103304.44;5052879;28;20029;-72
2022/02/27 05:17:09;;;;;;;15.75;5.40;;;;;;;-1.89;100.00;103297.53;5053072;28;20048;-72
2022/02/27 05:19:34;;;;;;;14.73;5.27;;;;;;;-1.86;100.00;103294.03;5035013;28;20095;-72
2022/02/27 05:21:59;;;;;;;16.50;4.75;;;;;;;-1.84;100.00;103302.72;5034874;28;20290;-72
2022/02/27 05:24:25;;;;;;;11.05;5.53;;;;;;;-1.87;100.00;103303.63;5034986;28;20024;-72
2022/02/27 05:26:50;;;;;;;10.70;4.97;;;;;;;-1.90;100.00;103308.88;5052082;28;20477;-72
2022/02/27 05:29:16;;;;;;;8.60;3.95;;;;;;;-1.90;100.00;103308.88;5052598;28;20048;-72
2022/02/27 05:31:42;;;;;;;10.88;4.10;;;;;;;-1.96;100.00;103312.47;5034983;28;20083;-72
2022/02/27 05:34:08;;;;;;;9.52;4.60;;;;;;;-2.06;100.00;103309.97;5034674;28;20060;-72
2022/02/27 05:36:34;;;;;;;9.95;4.53;;;;;;;-2.17;100.00;103318.81;5034791;28;20037;-73
2022/02/27 05:38:59;;;;;;;11.00;4.78;;;;;;;-2.07;100.00;103316.94;5034553;28;20028;-72
2022/02/27 05:41:24;;;;;;;9.50;4.53;;;;;;;-2.06;100.00;103316.09;5052043;28;20033;-72
2022/02/27 05:43:50;;;;;;;14.85;4.50;;;;;;;-2.05;100.00;103314.31;5034298;28;20366;-72
2022/02/27 05:46:15;;;;;;;17.15;5.25;;;;;;;-2.01;100.00;103321.28;5034461;28;20060;-72
2022/02/27 05:48:41;;;;;;;15.10;5.40;;;;;;;-1.97;100.00;103322.94;5034439;28;20052;-72
2022/02/27 05:51:06;;;;;;;14.25;5.30;;;;;;;-1.97;100.00;103328.19;5034633;28;20041;-72
2022/02/27 05:53:32;;;;;;;10.20;5.57;;;;;;;-1.99;100.00;103332.56;5052166;28;20033;-72
2022/02/27 05:55:57;;;;;;;10.63;5.55;;;;;;;-1.98;100.00;103335.16;5034019;28;20041;-72
2022/02/27 05:58:24;;;;;;;15.02;5.13;;;;;;;-1.89;100.00;103336.81;5052142;28;20024;-72
2022/02/27 06:00:50;;;;;;;14.30;4.72;;;;;;;-1.93;100.00;103340.34;5034145;28;20037;-72
2022/02/27 06:03:16;;;;;;;17.15;4.95;;;;;;;-1.96;100.00;103349.13;5034286;28;20029;-72
2022/02/27 06:05:43;;;;;;;12.27;4.13;;;;;;;-1.96;100.00;103350.88;5034105;28;20037;-72
2022/02/27 06:08:09;;;;;;;18.45;5.13;;;;;;;-1.91;100.00;103349.91;5034002;28;20119;-73
2022/02/27 06:10:34;;;;;;;17.13;5.50;;;;;;;-1.89;100.00;103351.69;5051545;28;20116;-72
2022/02/27 06:12:59;;;;;;;14.63;5.45;;;;;;;-1.84;100.00;103353.34;5033833;28;20532;-73
2022/02/27 06:15:25;;;;;;;15.30;5.85;;;;;;;-1.85;100.00;103350.72;5033949;28;20397;-72
2022/02/27 06:17:51;;;;;;;16.40;5.78;;;;;;;-1.81;100.00;103361.16;5051782;28;20112;-72
2022/02/27 06:20:16;;;;;;;14.23;5.63;;;;;;;-1.82;100.00;103359.44;5051450;28;20498;-72
2022/02/27 06:22:43;;;;;;;13.63;5.47;;;;;;;-1.79;100.00;103366.38;5017388;28;20032;-73
2022/02/27 06:25:10;;;;;;;11.32;4.88;;;;;;;-1.74;100.00;103361.94;5032656;28;20486;-72
2022/02/27 06:27:42;;;;;;;20.63;5.25;;;;;;;-1.75;100.00;103365.47;5033469;28;20029;-73
2022/02/27 06:30:18;;;;;;;13.32;5.28;;;;;;;-1.71;100.00;103372.38;5033543;28;20044;-72
2022/02/27 06:32:49;;;;;;;12.13;6.00;;;;;;;-1.60;100.00;103374.88;5033608;28;20068;-72
2022/02/27 06:35:17;;;;;;;15.10;5.15;;;;;;;-1.63;100.00;103369.69;5033430;28;20037;-72
2022/02/27 06:37:43;;;;;;;16.83;5.28;;;;;;;-1.61;100.00;103378.41;5033349;28;20056;-72
2022/02/27 06:40:09;;;;;;;18.15;6.03;;;;;;;-1.61;100.00;103373.16;5051071;28;20072;-72
2022/02/27 06:42:36;;;;;;;13.48;6.10;;;;;;;-1.67;100.00;103376.69;5016977;28;20604;-72
2022/02/27 06:45:02;;;;;;;10.55;5.68;;;;;;;-1.67;100.00;103384.56;5033117;28;20397;-72
2022/02/27 06:47:27;;;;;;;18.67;6.40;;;;;;;-1.71;100.00;103388.09;5033042;28;20025;-72
2022/02/27 06:49:52;;;;;;;16.40;5.85;;;;;;;-1.63;100.00;103390.66;5033103;28;20501;-72
2022/02/27 06:52:18;;;;;;;16.92;6.32;;;;;;;-1.63;100.00;103391.50;5033369;28;20028;-72
2022/02/27 06:54:43;;;;;;;11.32;5.32;;;;;;;-1.58;100.00;103400.16;5050789;28;20039;-72
2022/02/27 06:57:09;;;;;;;15.27;5.57;;;;;;;-1.60;100.00;103406.31;5033385;28;20021;-72
2022/02/27 06:59:34;;;;;;;26.10;8.30;;;;;;;-1.52;100.00;103404.47;5050789;28;20127;-72
2022/02/27 07:02:00;;;;;;;14.80;6.30;;;;;;;-1.47;100.00;103407.91;5050522;28;20029;-71
2022/02/27 07:04:25;;;;;;;16.02;6.22;;;;;;;-1.30;100.00;103410.28;5032860;28;20063;-72
2022/02/27 07:06:50;;;;;;;10.43;6.33;;;;;;;-1.13;100.00;103410.06;5033277;28;20082;-72
2022/02/27 07:09:16;;;;;;;13.10;5.43;;;;;;;-0.90;100.00;103417.59;5050473;28;20275;-72
2022/02/27 07:11:44;;;;;;;14.90;5.28;;;;;;;-0.73;100.00;103412.94;5033176;28;20086;-72
2022/02/27 07:14:10;;;;;;;21.25;6.40;;;;;;;-0.68;100.00;103410.25;5050454;28;20037;-72
2022/02/27 07:16:36;;;;;;;11.25;4.35;;;;;;;-0.59;100.00;103409.25;5033065;28;20083;-72
2022/02/27 07:19:01;;;;;;;15.30;4.68;;;;;;;-0.50;100.00;103398.59;5032660;28;20045;-72
2022/02/27 07:21:27;;;;;;;11.10;4.70;;;;;;;-0.40;100.00;103394.06;5033070;28;20056;-72
2022/02/27 07:23:52;;;;;;;11.07;4.22;;;;;;;-0.28;100.00;103391.19;5032715;28;20393;-72
2022/02/27 07:26:18;;;;;;;13.15;4.72;;;;;;;-0.04;100.00;103382.88;5032707;28;20115;-72
2022/02/27 07:28:43;;;;;;;9.88;4.22;;;;;;;0.06;100.00;103380.94;5050075;28;20033;-72
2022/02/27 07:31:08;;;;;;;5.80;3.20;;;;;;;0.05;100.00;103365.19;5050613;28;20091;-72
2022/02/27 07:33:34;;;;;;;8.20;4.18;;;;;;;0.12;100.00;103366.84;5015801;28;20025;-72
2022/02/27 07:35:59;;;;;;;11.98;3.72;;;;;;;0.08;100.00;103360.75;5050343;28;20474;-71
2022/02/27 07:38:25;;;;;;;10.77;4.60;;;;;;;0.41;100.00;103355.72;5050500;28;20033;-72
2022/02/27 07:40:51;;;;;;;7.85;3.90;;;;;;;0.61;100.00;103353.53;5032297;28;20271;-71
2022/02/27 07:43:18;;;;;;;17.52;5.32;;;;;;;0.98;100.00;103354.41;5032844;28;20037;-72
2022/02/27 07:45:46;;;;;;;11.68;3.67;;;;;;;0.68;100.00;103330.59;5032265;28;20032;-71
2022/02/27 07:48:12;;;;;;;10.50;5.03;;;;;;;0.97;100.00;103337.78;5032775;28;20436;-72
2022/02/27 07:50:38;;;;;;;12.40;4.38;;;;;;;1.18;100.00;103331.13;5032391;28;20500;-72
2022/02/27 07:53:03;;;;;;;8.57;4.00;;;;;;;1.48;100.00;103329.47;5032472;28;20033;-72
2022/02/27 07:55:29;;;;;;;14.50;4.83;;;;;;;1.77;100.00;103314.66;5050046;28;20029;-72
2022/02/27 07:57:54;;;;;;;9.77;3.80;;;;;;;1.47;100.00;103295.28;5032662;28;20037;-72
2022/02/27 08:00:20;;;;;;;14.27;3.95;;;;;;;1.75;100.00;103294.53;5032354;28;20041;-72
2022/02/27 08:02:45;;;;;;;7.85;3.80;;;;;;;2.70;100.00;103304.88;5032114;28;20032;-72
2022/02/27 08:05:10;;;;;;;10.07;3.67;;;;;;;2.98;100.00;103282.88;5032055;28;20608;-72
2022/02/27 08:07:36;;;;;;;7.60;3.13;;;;;;;3.40;100.00;103272.63;5050319;28;20336;-72
2022/02/27 08:10:02;;;;;;;13.48;3.85;;;;;;;2.49;100.00;103225.53;5032030;28;20121;-72
2022/02/27 08:12:27;;;;;;;9.70;3.90;;;;;;;2.41;100.00;103224.03;5032373;28;20072;-72
2022/02/27 08:14:53;;;;;;;7.97;4.13;;;;;;;2.01;100.00;103202.41;5032355;28;20386;-71
2022/02/27 08:17:18;;;;;;;14.27;3.83;;;;;;;2.31;100.00;103220.84;5032216;28;20037;-72
2022/02/27 08:19:50;;;;;;;10.80;3.65;;;;;;;2.24;100.00;103208.75;5032191;28;20025;-71
2022/02/27 08:22:15;;;;;;;12.48;4.38;;;;;;;2.47;100.00;103211.53;5049982;28;20056;-72
2022/02/27 08:24:41;;;;;;;9.55;4.15;;;;;;;2.72;100.00;103216.84;5032110;28;20047;-71
2022/02/27 08:27:07;;;;;;;8.25;3.50;;;;;;;3.04;100.00;103214.88;5048786;28;20493;-72
2022/02/27 08:29:32;;;;;;;9.13;4.23;;;;;;;3.21;98.25;103209.03;5032015;28;20105;-72
2022/02/27 08:31:58;;;;;;;12.45;3.75;;;;;;;3.83;96.84;103202.34;5049877;28;20349;-72
2022/02/27 08:34:27;;;;;;;12.98;4.95;;;;;;;4.06;93.83;103166.25;5031855;28;20036;-72
2022/02/27 08:36:53;;;;;;;11.02;3.95;;;;;;;3.82;91.24;103105.50;5049208;28;20035;-72
2022/02/27 08:39:19;;;;;;;;;;;;;;;3.93;91.41;103136.78;5049429;28;20544;-72
2022/02/27 08:41:44;;;;;;;13.38;4.90;;;;;;;4.97;89.11;103124.47;5047739;28;19920;-72
2022/02/27 08:44:11;;;;;;;5.13;3.40;;;;;;;4.84;86.73;103071.19;5032901;28;20056;-72
2022/02/27 08:46:36;;;;;;;11.82;4.45;;;;;;;5.01;85.73;103066.94;5034892;28;20048;-73
2022/02/27 08:49:03;;;;;;;6.38;3.83;;;;;;;6.22;82.58;103023.19;5035510;28;20044;-72
2022/02/27 08:51:28;;;;;;;11.57;5.45;;;;;;;5.61;80.69;102950.22;5052013;28;20516;-73
2022/02/27 08:53:54;;;;;;;14.37;4.03;;;;;;;6.65;78.96;102960.75;5053185;28;20021;-72
2022/02/27 08:56:19;;;;;;;12.07;4.28;;;;;;;6.20;76.26;102828.75;5035500;28;20032;-73
2022/02/27 08:58:44;;;;;;;9.30;3.77;;;;;;;6.09;76.89;102890.34;5052980;28;20036;-73
2022/02/27 09:01:10;;;;;;;8.27;4.17;;;;;;;5.62;75.88;102825.59;5052006;28;20087;-72
2022/02/27 09:03:35;;;;;;;9.30;4.57;;;;;;;5.84;77.74;102954.38;5035352;28;20107;-73
2022/02/27 09:06:01;;;;;;;6.20;3.47;;;;;;;6.89;75.96;102923.19;5035263;28;20098;-73
2022/02/27 09:08:26;;;;;;;11.70;4.67;;;;;;;7.49;73.37;102848.88;5052979;28;20329;-73
2022/02/27 09:10:51;;;;;;;12.47;3.80;;;;;;;6.93;71.61;102721.09;5034962;28;20035;-73
2022/02/27 09:13:17;;;;;;;12.07;4.53;;;;;;;7.19;72.10;102817.84;5052775;28;20112;-73
2022/02/27 09:15:42;;;;;;;9.37;4.43;;;;;;;6.88;71.05;102746.22;5034765;28;20402;-73
2022/02/27 09:18:08;;;;;;;11.13;5.33;;;;;;;6.26;71.37;102683.41;5034387;28;20302;-73
2022/02/27 09:20:33;;;;;;;9.55;4.00;;;;;;;7.21;71.84;102840.81;5034066;28;20084;-73
2022/02/27 09:22:59;;;;;;;10.53;4.50;;;;;;;7.61;70.23;102772.88;5034168;28;20052;-73
2022/02/27 09:25:24;;;;;;;13.23;4.33;;;;;;;6.41;70.16;102638.34;5034217;28;20324;-72
2022/02/27 09:27:49;;;;;;;11.90;4.57;;;;;;;7.65;70.35;102792.97;5034611;28;20477;-72
2022/02/27 09:30:15;;;;;;;15.32;6.68;;;;;;;6.12;71.50;102731.91;5034775;28;20040;-73
2022/02/27 09:32:41;;;;;;;11.10;4.55;;;;;;;5.81;72.79;102777.78;5052459;28;20029;-72
2022/02/27 09:35:07;;;;;;;;;;;;;;;5.97;73.74;102867.13;5052768;28;20375;-73
2022/02/27 09:37:33;;;;;;;13.70;5.00;;;;;;;4.75;75.96;102886.38;5033959;28;19916;-73
2022/02/27 09:39:59;;;;;;;15.50;5.70;;;;;;;5.75;77.82;103085.56;5033808;28;20125;-73
2022/02/27 09:42:29;;;;;;;11.55;4.47;;;;;;;5.98;76.24;102988.16;5033950;28;20454;-73
2022/02/27 09:44:56;;;;;;;13.10;5.30;;;;;;;5.98;76.22;103004.94;5034076;28;20029;-72
2022/02/27 09:47:22;;;;;;;15.55;5.88;;;;;;;5.90;75.78;102969.97;5034283;28;20017;-73
2022/02/27 09:49:48;;;;;;;12.60;5.33;;;;;;;5.54;75.88;102943.50;5033897;28;20068;-72
2022/02/27 09:52:16;;;;;;;14.32;4.60;;;;;;;6.44;75.84;103046.81;5034238;28;20060;-73
2022/02/27 09:54:41;;;;;;;11.43;5.53;;;;;;;6.02;75.25;102934.06;5034217;28;20037;-73
2022/02/27 09:57:07;;;;;;;12.13;4.97;;;;;;;6.49;74.60;102986.41;5033564;28;20384;-72
2022/02/27 09:59:33;;;;;;;10.45;4.00;;;;;;;6.44;73.76;102935.34;5050792;28;20329;-72
2022/02/27 10:02:04;;;;;;;13.02;4.93;;;;;;;5.73;74.96;102946.94;5033720;28;20032;-73
2022/02/27 10:04:34;;;;;;;13.63;5.05;;;;;;;7.09;74.53;103042.44;5033585;28;20043;-72
2022/02/27 10:07:00;;;;;;;13.35;5.40;;;;;;;6.54;72.03;102835.75;5034093;28;20037;-73
2022/02/27 10:09:25;;;;;;;9.88;4.82;;;;;;;7.03;73.21;102981.69;5051380;28;20024;-73
2022/02/27 10:11:52;;;;;;;10.23;5.85;;;;;;;7.73;71.53;102934.31;5033877;28;20041;-73
2022/02/27 10:14:27;;;;;;;12.25;5.50;;;;;;;8.60;69.04;102866.91;5033768;28;20029;-72
2022/02/27 10:17:04;;;;;;;11.80;4.28;;;;;;;7.71;67.62;102682.75;5050027;28;20071;-73
2022/02/27 10:19:30;;;;;;;10.23;5.03;;;;;;;8.25;66.70;102704.97;5051250;28;20041;-73
2022/02/27 10:21:55;;;;;;;10.07;5.13;;;;;;;8.87;66.00;102735.56;5033172;28;20029;-72
2022/02/27 10:24:20;;;;;;;12.73;5.60;;;;;;;8.35;65.66;102670.59;5032590;28;20036;-72
2022/02/27 10:26:48;;;;;;;13.30;4.93;;;;;;;8.83;65.20;102713.63;5032908;28;20064;-72
2022/02/27 10:29:25;;;;;;;13.75;5.43;;;;;;;7.73;66.57;102692.34;5033087;28;20498;-73
2022/02/27 10:31:52;;;;;;;15.57;6.78;;;;;;;8.99;66.01;102792.47;5016943;28;20073;-73
2022/02/27 10:34:18;;;;;;;13.02;4.85;;;;;;;8.52;64.62;102644.72;5033195;28;20036;-72
2022/02/27 10:37:05;;;;;;;10.73;5.10;;;;;;;9.12;63.01;102608.66;5032995;28;20032;-73
2022/02/27 10:39:51;;;;;;;10.88;4.00;;;;;;;9.34;63.64;102691.50;5049736;28;20045;-72
2022/02/27 10:42:19;;;;;;;12.63;4.97;;;;;;;10.62;61.48;102674.28;5033454;28;20071;-73
2022/02/27 10:44:52;;;;;;;8.00;4.15;;;;;;;10.57;59.62;102544.59;5033201;28;20629;-73
2022/02/27 10:47:18;;;;;;;7.65;4.07;;;;;;;10.69;58.22;102472.50;5051305;28;20039;-73
2022/02/27 10:49:45;;;;;;;;;;;;;;;8.98;60.89;102460.44;5033362;28;20029;-73
2022/02/27 10:52:10;;;;;;;11.88;4.10;;;;;;;9.70;62.43;102709.38;5033355;28;19920;-72
2022/02/27 10:54:40;;;;;;;8.30;3.80;;;;;;;10.82;61.54;102758.28;5049737;28;20401;-73
2022/02/27 10:57:10;;;;;;;8.43;3.83;;;;;;;11.11;60.17;102686.56;5033132;28;20036;-72
2022/02/27 10:59:39;;;;;;;8.57;4.40;;;;;;;10.45;58.28;102461.94;5032873;28;20150;-72
2022/02/27 11:02:08;;;;;;;14.45;4.35;;;;;;;9.07;59.03;102345.22;5016437;28;20116;-72
2022/02/27 11:04:35;;;;;;;12.80;4.28;;;;;;;7.61;62.06;102417.50;5032914;28;20017;-72
2022/02/27 11:07:02;;;;;;;11.55;3.50;;;;;;;8.13;64.83;102712.91;5031948;28;20645;-72
2022/02/27 11:09:27;;;;;;;13.18;4.85;;;;;;;9.23;63.57;102769.53;5032880;28;20078;-72
2022/02/27 11:11:54;;;;;;;7.53;3.80;;;;;;;8.94;61.60;102586.81;5050747;28;20037;-72
2022/02/27 11:14:19;;;;;;;9.77;3.70;;;;;;;8.79;61.22;102578.94;5050527;28;20291;-72